createdAt,value
2017-11-05T11:53:31.341Z,90.50
2017-11-05T11:56:05.442Z,89.50
2017-11-05T11:58:45.078Z,89.40
2017-11-05T12:01:25.413Z,88.10
2017-11-05T12:04:05.880Z,86.60
2017-11-05T12:06:47.317Z,88.90
2017-11-05T12:09:24.221Z,89.50
2017-11-05T12:12:04.422Z,87.00
2017-11-05T12:14:44.110Z,86.90
2017-11-05T12:17:22.520Z,86.10
2017-11-05T12:20:00.372Z,86.80
2017-11-05T12:22:39.076Z,88.20
2017-11-05T12:25:19.007Z,89.30
2017-11-05T12:27:58.560Z,89.80
2017-11-05T12:30:39.280Z,89.90
2017-11-05T12:33:20.674Z,90.10
2017-11-05T12:36:04.559Z,90.50
2017-11-05T12:38:44.279Z,90.20
2017-11-05T12:41:24.294Z,90.00
2017-11-05T12:44:02.708Z,90.30
2017-11-05T12:46:41.452Z,89.50
2017-11-05T12:49:20.859Z,90.00
2017-11-05T12:51:54.390Z,90.10
2017-11-05T12:54:36.540Z,88.70
2017-11-05T12:57:15.862Z,90.00
2017-11-05T12:59:54.789Z,90.50
2017-11-05T13:02:36.296Z,89.60
2017-11-05T13:05:14.268Z,88.60
2017-11-05T13:07:52.636Z,87.50
2017-11-05T13:10:30.887Z,86.20
2017-11-05T13:13:10.962Z,85.70
2017-11-05T13:15:49.209Z,84.50
2017-11-05T13:18:26.789Z,86.10
2017-11-05T13:20:59.498Z,86.80
2017-11-05T13:23:39.600Z,88.10
2017-11-05T13:26:18.934Z,89.70
2017-11-05T13:28:58.825Z,90.20
2017-11-05T13:31:34.243Z,89.80
2017-11-05T13:34:18.435Z,90.40
2017-11-05T13:36:59.320Z,93.90
2017-11-05T13:39:32.989Z,93.90
2017-11-05T13:42:12.194Z,95.60
2017-11-05T13:44:54.251Z,98.40
2017-11-05T13:47:33.177Z,98.40
2017-11-05T13:50:13.812Z,99.80
2017-11-05T13:52:51.594Z,99.80
2017-11-05T13:55:30.780Z,99.90
2017-11-05T13:58:10.268Z,99.90
2017-11-05T14:00:49.628Z,99.70
2017-11-05T14:03:30.710Z,99.70
2017-11-05T14:06:05.535Z,99.40
2017-11-05T14:08:41.284Z,99.30
2017-11-05T14:11:20.460Z,99.60
2017-11-05T14:13:59.552Z,99.10
2017-11-05T14:16:40.937Z,96.40
2017-11-05T14:19:19.376Z,96.40
2017-11-05T14:21:57.288Z,96.10
2017-11-05T14:24:26.897Z,95.40
2017-11-05T14:27:06.929Z,95.60
2017-11-05T14:29:48.157Z,95.30
2017-11-05T14:32:27.036Z,95.80
2017-11-05T14:35:05.551Z,95.40
2017-11-05T14:37:43.740Z,96.30
2017-11-05T14:40:23.405Z,96.00
2017-11-05T14:43:02.240Z,95.60
2017-11-05T14:45:41.500Z,95.20
2017-11-05T14:48:21.760Z,95.50
2017-11-05T14:51:01.004Z,96.00
2017-11-05T14:53:40.218Z,96.00
2017-11-05T14:56:18.625Z,96.50
2017-11-05T14:58:57.305Z,96.50
2017-11-05T15:01:35.968Z,96.10
2017-11-05T15:04:15.729Z,96.10
2017-11-05T15:06:57.312Z,96.20
2017-11-05T15:09:36.688Z,95.70
2017-11-05T15:12:17.944Z,96.20
2017-11-05T15:14:57.187Z,96.20
2017-11-05T15:17:35.924Z,96.20
2017-11-05T15:20:09.853Z,96.50
2017-11-05T15:22:48.989Z,96.70
2017-11-05T15:25:31.049Z,96.30
2017-11-05T15:28:08.891Z,96.40
2017-11-05T15:30:49.339Z,96.40
2017-11-05T15:33:28.711Z,96.20
2017-11-05T15:36:03.569Z,96.40
2017-11-05T15:38:37.794Z,96.50
2017-11-05T15:41:17.458Z,97.00
2017-11-05T15:43:58.665Z,97.20
2017-11-05T15:46:36.776Z,97.20
2017-11-05T15:49:15.113Z,97.40
2017-11-05T15:51:52.843Z,97.30
2017-11-05T15:54:32.734Z,97.30
2017-11-05T15:57:13.265Z,97.30
2017-11-05T15:59:45.632Z,97.00
2017-11-05T16:02:24.607Z,97.50
2017-11-05T16:05:05.582Z,97.60
2017-11-05T16:07:39.269Z,97.50
2017-11-05T16:10:19.124Z,97.60
2017-11-05T16:13:01.435Z,97.80
2017-11-05T16:15:44.820Z,98.00
2017-11-05T16:18:25.588Z,98.50
2017-11-05T16:21:02.829Z,99.50
2017-11-05T16:23:38.497Z,99.50
2017-11-05T16:26:17.161Z,99.90
2017-11-05T16:28:53.324Z,98.90
2017-11-05T16:31:32.210Z,98.40
2017-11-05T16:34:18.976Z,97.70
2017-11-05T16:36:59.749Z,97.20
2017-11-05T16:39:39.182Z,97.80
2017-11-05T16:42:18.355Z,98.30
2017-11-05T16:44:52.378Z,98.70
2017-11-05T16:47:34.394Z,99.40
2017-11-05T16:50:19.695Z,99.40
2017-11-05T16:52:53.947Z,99.40
2017-11-05T16:55:28.597Z,99.60
2017-11-05T16:58:02.942Z,99.90
2017-11-05T17:00:40.882Z,99.90
2017-11-05T17:03:16.478Z,99.90
2017-11-05T17:05:52.273Z,99.90
2017-11-05T17:08:31.044Z,99.90
2017-11-05T17:11:14.358Z,99.90
2017-11-05T17:13:48.502Z,99.90
2017-11-05T17:16:33.310Z,99.90
2017-11-05T17:19:07.196Z,99.90
2017-11-05T17:21:43.766Z,99.90
2017-11-05T17:24:20.971Z,99.90
2017-11-05T17:26:55.176Z,99.90
2017-11-05T17:29:37.599Z,99.90
2017-11-05T17:32:11.655Z,99.90
2017-11-05T17:34:51.485Z,99.90
2017-11-05T17:37:33.822Z,99.90
2017-11-05T17:40:12.534Z,99.90
2017-11-05T17:42:51.067Z,99.90
2017-11-05T17:45:31.402Z,99.90
2017-11-05T17:48:13.921Z,99.90
2017-11-05T17:50:53.665Z,99.90
2017-11-05T17:53:35.415Z,99.90
2017-11-05T17:56:16.346Z,99.90
2017-11-05T17:58:55.665Z,99.90
2017-11-05T18:01:37.902Z,99.90
2017-11-05T18:04:13.007Z,99.90
2017-11-05T18:06:56.134Z,99.90
2017-11-05T18:09:29.854Z,99.90
2017-11-05T18:12:04.048Z,99.90
2017-11-05T18:14:37.545Z,99.90
2017-11-05T18:17:15.433Z,99.90
2017-11-05T18:19:50.447Z,99.90
2017-11-05T18:22:27.028Z,99.90
2017-11-05T18:25:06.702Z,99.90
2017-11-05T18:27:43.498Z,99.90
2017-11-05T18:30:17.608Z,99.90
2017-11-05T18:32:55.803Z,99.90
2017-11-05T18:35:34.818Z,99.90
2017-11-05T18:38:08.507Z,99.90
2017-11-05T18:40:41.573Z,99.90
2017-11-05T18:43:20.331Z,99.90
2017-11-05T18:46:01.056Z,99.90
2017-11-05T18:48:41.729Z,99.90
2017-11-05T18:51:25.110Z,99.90
2017-11-05T18:54:05.800Z,99.90
2017-11-05T18:56:45.194Z,99.90
2017-11-05T18:59:18.936Z,99.90
2017-11-05T19:01:57.813Z,99.90
2017-11-05T19:04:38.137Z,99.90
2017-11-05T19:07:16.267Z,99.90
2017-11-05T19:09:48.840Z,99.90
2017-11-05T19:12:33.814Z,99.90
2017-11-05T19:15:13.559Z,99.90
2017-11-05T19:17:48.079Z,99.90
2017-11-05T19:20:22.972Z,99.90
2017-11-05T19:23:02.830Z,99.90
2017-11-05T19:25:42.046Z,99.90
2017-11-05T19:28:23.520Z,99.90
2017-11-05T19:30:57.556Z,99.90
2017-11-05T19:33:37.407Z,99.90
2017-11-05T19:36:18.630Z,99.90
2017-11-05T19:38:58.036Z,99.90
2017-11-05T19:41:38.586Z,99.90
2017-11-05T19:44:15.896Z,99.90
2017-11-05T19:46:53.996Z,99.90
2017-11-05T19:49:35.093Z,99.90
2017-11-05T19:52:16.737Z,99.90
2017-11-05T19:54:58.217Z,99.90
2017-11-05T19:57:36.985Z,99.90
2017-11-05T20:00:17.621Z,99.90
2017-11-05T20:02:57.479Z,99.90
2017-11-05T20:05:39.297Z,99.90
2017-11-05T20:08:18.609Z,99.90
2017-11-05T20:10:59.910Z,99.90
2017-11-05T20:13:42.484Z,99.90
2017-11-05T20:16:17.818Z,99.90
2017-11-05T20:18:51.295Z,99.90
2017-11-05T20:21:30.572Z,99.90
2017-11-05T20:24:11.230Z,99.90
2017-11-05T20:26:55.750Z,99.90
2017-11-05T20:29:35.781Z,99.90
2017-11-05T20:32:10.633Z,99.90
2017-11-05T20:34:49.460Z,99.90
2017-11-05T20:37:29.287Z,99.90
2017-11-05T20:40:08.027Z,99.90
2017-11-05T20:42:51.190Z,99.90
2017-11-05T20:45:32.997Z,99.90
2017-11-05T20:48:16.620Z,99.90
2017-11-05T20:50:59.386Z,99.90
2017-11-05T20:53:32.964Z,99.90
2017-11-05T20:56:14.726Z,99.90
2017-11-05T20:58:56.248Z,99.90
2017-11-05T21:01:36.179Z,99.90
2017-11-05T21:04:10.476Z,99.90
2017-11-05T21:06:48.452Z,99.90
2017-11-05T21:09:27.648Z,99.90
2017-11-05T21:12:07.002Z,99.90
2017-11-05T21:14:44.583Z,99.90
2017-11-05T21:17:26.727Z,99.90
2017-11-05T21:20:05.691Z,99.90
2017-11-05T21:22:47.906Z,99.90
2017-11-05T21:25:26.441Z,99.90
2017-11-05T21:28:09.739Z,99.90
2017-11-05T21:30:53.083Z,99.90
2017-11-05T21:33:27.205Z,99.90
2017-11-05T21:36:02.553Z,99.90
2017-11-05T21:38:42.814Z,99.90
2017-11-05T21:41:22.581Z,99.90
2017-11-05T21:44:02.517Z,99.90
2017-11-05T21:46:43.695Z,99.90
2017-11-05T21:49:26.348Z,99.90
2017-11-05T21:52:10.861Z,99.90
2017-11-05T21:54:46.146Z,99.90
2017-11-05T21:57:18.932Z,99.90
2017-11-05T21:59:57.065Z,99.90
2017-11-05T22:02:31.407Z,99.90
2017-11-05T22:05:09.643Z,99.90
2017-11-05T22:07:51.975Z,99.90
2017-11-05T22:10:35.714Z,99.90
2017-11-05T22:13:09.175Z,99.90
2017-11-05T22:15:47.651Z,99.90
2017-11-05T22:18:28.634Z,99.90
2017-11-05T22:21:07.825Z,99.90
2017-11-05T22:23:46.782Z,99.90
2017-11-05T22:26:26.341Z,99.90
2017-11-05T22:29:06.446Z,99.90
2017-11-05T22:31:49.630Z,99.90
2017-11-05T22:34:36.294Z,99.90
2017-11-05T22:37:14.520Z,99.90
2017-11-05T22:39:48.428Z,99.90
2017-11-05T22:42:28.783Z,99.90
2017-11-05T22:45:10.052Z,99.90
2017-11-05T22:47:42.853Z,99.90
2017-11-05T22:50:23.627Z,99.90
2017-11-05T22:53:01.114Z,99.90
2017-11-05T22:55:51.378Z,99.90
2017-11-05T22:58:28.924Z,99.90
2017-11-05T23:01:13.471Z,99.90
2017-11-05T23:03:55.284Z,99.90
2017-11-05T23:06:35.894Z,99.90
2017-11-05T23:09:17.376Z,99.90
2017-11-05T23:11:57.426Z,99.90
2017-11-05T23:14:36.684Z,99.90
2017-11-05T23:17:16.622Z,99.90
2017-11-05T23:20:05.419Z,99.90
2017-11-05T23:22:44.854Z,99.90
2017-11-05T23:25:18.413Z,99.90
2017-11-05T23:27:56.883Z,99.90
2017-11-05T23:30:37.090Z,99.90
2017-11-05T23:33:18.137Z,99.90
2017-11-05T23:35:56.973Z,99.90
2017-11-05T23:38:39.045Z,99.90
2017-11-05T23:41:20.282Z,99.90
2017-11-05T23:43:58.877Z,99.90
2017-11-05T23:46:39.401Z,99.90
2017-11-05T23:49:24.943Z,99.90
2017-11-05T23:52:06.567Z,99.90
2017-11-05T23:54:49.272Z,99.90
2017-11-05T23:57:28.348Z,99.90
